sensor_id;sensor_type;location;lat;lon;timestamp;P1;durP1;ratioP1;P2;durP2;ratioP2
53875;SDS011;39789;53.216;5.624;2022-11-27T00:01:28;20.60;;;7.30;;
53875;SDS011;39789;53.216;5.624;2022-11-27T00:03:55;18.80;;;7.95;;
53875;SDS011;39789;53.216;5.624;2022-11-27T00:10:02;24.35;;;7.55;;
53875;SDS011;39789;53.216;5.624;2022-11-27T00:12:29;20.42;;;7.15;;
53875;SDS011;39789;53.216;5.624;2022-11-27T00:14:55;18.48;;;7.30;;
53875;SDS011;39789;53.216;5.624;2022-11-27T00:17:20;21.38;;;7.78;;
53875;SDS011;39789;53.216;5.624;2022-11-27T00:19:46;19.88;;;7.55;;
53875;SDS011;39789;53.216;5.624;2022-11-27T00:22:11;28.42;;;8.15;;
53875;SDS011;39789;53.216;5.624;2022-11-27T00:24:37;15.07;;;7.13;;
53875;SDS011;39789;53.216;5.624;2022-11-27T00:27:02;20.38;;;7.18;;
53875;SDS011;39789;53.216;5.624;2022-11-27T00:29:28;16.17;;;6.68;;
53875;SDS011;39789;53.216;5.624;2022-11-27T00:31:55;19.80;;;7.68;;
53875;SDS011;39789;53.216;5.624;2022-11-27T00:34:20;20.77;;;7.47;;
53875;SDS011;39789;53.216;5.624;2022-11-27T00:36:46;13.75;;;6.45;;
53875;SDS011;39789;53.216;5.624;2022-11-27T00:39:12;21.73;;;7.57;;
53875;SDS011;39789;53.216;5.624;2022-11-27T00:41:37;21.70;;;7.95;;
53875;SDS011;39789;53.216;5.624;2022-11-27T00:44:03;18.50;;;7.13;;
53875;SDS011;39789;53.216;5.624;2022-11-27T00:46:30;23.27;;;7.00;;
53875;SDS011;39789;53.216;5.624;2022-11-27T00:48:57;16.52;;;7.43;;
53875;SDS011;39789;53.216;5.624;2022-11-27T00:51:24;23.50;;;7.40;;
53875;SDS011;39789;53.216;5.624;2022-11-27T00:53:50;16.88;;;6.32;;
53875;SDS011;39789;53.216;5.624;2022-11-27T00:56:17;17.02;;;7.90;;
53875;SDS011;39789;53.216;5.624;2022-11-27T00:58:51;17.83;;;8.43;;
53875;SDS011;39789;53.216;5.624;2022-11-27T01:01:18;15.80;;;6.93;;
53875;SDS011;39789;53.216;5.624;2022-11-27T01:03:49;23.27;;;8.77;;
53875;SDS011;39789;53.216;5.624;2022-11-27T01:06:16;17.40;;;6.95;;
53875;SDS011;39789;53.216;5.624;2022-11-27T01:08:42;20.10;;;6.82;;
53875;SDS011;39789;53.216;5.624;2022-11-27T01:11:15;20.98;;;7.22;;
53875;SDS011;39789;53.216;5.624;2022-11-27T01:13:46;22.67;;;6.82;;
53875;SDS011;39789;53.216;5.624;2022-11-27T01:16:13;22.95;;;7.90;;
53875;SDS011;39789;53.216;5.624;2022-11-27T01:18:41;22.23;;;7.18;;
53875;SDS011;39789;53.216;5.624;2022-11-27T01:21:08;16.52;;;6.90;;
53875;SDS011;39789;53.216;5.624;2022-11-27T01:23:35;23.88;;;7.13;;
53875;SDS011;39789;53.216;5.624;2022-11-27T01:26:04;24.05;;;7.75;;
53875;SDS011;39789;53.216;5.624;2022-11-27T01:28:31;20.33;;;7.22;;
53875;SDS011;39789;53.216;5.624;2022-11-27T01:30:57;15.50;;;6.95;;
53875;SDS011;39789;53.216;5.624;2022-11-27T01:33:23;14.88;;;6.97;;
53875;SDS011;39789;53.216;5.624;2022-11-27T01:35:53;21.35;;;7.18;;
53875;SDS011;39789;53.216;5.624;2022-11-27T01:38:23;14.97;;;6.53;;
53875;SDS011;39789;53.216;5.624;2022-11-27T01:40:59;16.73;;;6.72;;
53875;SDS011;39789;53.216;5.624;2022-11-27T01:51:35;13.07;;;6.40;;
53875;SDS011;39789;53.216;5.624;2022-11-27T01:54:04;16.08;;;6.55;;
53875;SDS011;39789;53.216;5.624;2022-11-27T01:56:32;12.93;;;6.55;;
53875;SDS011;39789;53.216;5.624;2022-11-27T01:58:58;15.48;;;6.30;;
53875;SDS011;39789;53.216;5.624;2022-11-27T02:01:25;14.50;;;6.47;;
53875;SDS011;39789;53.216;5.624;2022-11-27T02:03:52;15.50;;;6.35;;
53875;SDS011;39789;53.216;5.624;2022-11-27T02:06:18;19.15;;;7.53;;
53875;SDS011;39789;53.216;5.624;2022-11-27T02:08:44;18.80;;;7.15;;
53875;SDS011;39789;53.216;5.624;2022-11-27T02:13:47;20.27;;;6.53;;
53875;SDS011;39789;53.216;5.624;2022-11-27T02:16:49;11.43;;;6.32;;
53875;SDS011;39789;53.216;5.624;2022-11-27T02:25:50;18.65;;;6.60;;
53875;SDS011;39789;53.216;5.624;2022-11-27T02:31:15;10.68;;;5.80;;
53875;SDS011;39789;53.216;5.624;2022-11-27T02:33:47;17.77;;;7.53;;
53875;SDS011;39789;53.216;5.624;2022-11-27T02:36:21;18.25;;;6.93;;
53875;SDS011;39789;53.216;5.624;2022-11-27T02:38:58;12.73;;;6.40;;
53875;SDS011;39789;53.216;5.624;2022-11-27T02:41:29;10.32;;;6.15;;
53875;SDS011;39789;53.216;5.624;2022-11-27T02:44:01;12.82;;;6.50;;
53875;SDS011;39789;53.216;5.624;2022-11-27T02:46:30;19.50;;;7.72;;
53875;SDS011;39789;53.216;5.624;2022-11-27T02:48:57;15.32;;;7.03;;
53875;SDS011;39789;53.216;5.624;2022-11-27T02:51:28;13.93;;;6.72;;
53875;SDS011;39789;53.216;5.624;2022-11-27T02:54:02;21.20;;;7.25;;
53875;SDS011;39789;53.216;5.624;2022-11-27T02:56:30;17.08;;;6.60;;
53875;SDS011;39789;53.216;5.624;2022-11-27T02:58:59;13.55;;;5.80;;
53875;SDS011;39789;53.216;5.624;2022-11-27T03:01:31;18.17;;;6.57;;
53875;SDS011;39789;53.216;5.624;2022-11-27T03:04:01;16.95;;;6.28;;
53875;SDS011;39789;53.216;5.624;2022-11-27T03:06:35;12.63;;;6.05;;
53875;SDS011;39789;53.216;5.624;2022-11-27T03:12:49;12.25;;;6.18;;
53875;SDS011;39789;53.216;5.624;2022-11-27T03:15:15;11.45;;;6.20;;
53875;SDS011;39789;53.216;5.624;2022-11-27T03:20:16;13.35;;;5.72;;
53875;SDS011;39789;53.216;5.624;2022-11-27T03:22:52;12.77;;;5.40;;
53875;SDS011;39789;53.216;5.624;2022-11-27T03:25:19;11.48;;;5.53;;
53875;SDS011;39789;53.216;5.624;2022-11-27T03:27:47;13.38;;;7.32;;
53875;SDS011;39789;53.216;5.624;2022-11-27T03:30:17;10.55;;;5.60;;
53875;SDS011;39789;53.216;5.624;2022-11-27T03:32:43;13.90;;;5.82;;
53875;SDS011;39789;53.216;5.624;2022-11-27T03:35:10;15.13;;;6.65;;
53875;SDS011;39789;53.216;5.624;2022-11-27T03:37:38;20.58;;;6.30;;
53875;SDS011;39789;53.216;5.624;2022-11-27T03:40:04;14.18;;;5.70;;
53875;SDS011;39789;53.216;5.624;2022-11-27T03:42:42;17.92;;;7.20;;
53875;SDS011;39789;53.216;5.624;2022-11-27T03:45:17;12.80;;;6.32;;
53875;SDS011;39789;53.216;5.624;2022-11-27T03:48:14;12.25;;;5.75;;
53875;SDS011;39789;53.216;5.624;2022-11-27T03:53:31;11.50;;;5.82;;
53875;SDS011;39789;53.216;5.624;2022-11-27T03:57:00;12.77;;;5.88;;
53875;SDS011;39789;53.216;5.624;2022-11-27T04:01:38;10.98;;;5.65;;
53875;SDS011;39789;53.216;5.624;2022-11-27T04:04:05;12.50;;;5.80;;
53875;SDS011;39789;53.216;5.624;2022-11-27T04:06:30;14.30;;;5.72;;
53875;SDS011;39789;53.216;5.624;2022-11-27T04:08:56;13.48;;;6.05;;
53875;SDS011;39789;53.216;5.624;2022-11-27T04:11:21;13.63;;;5.57;;
53875;SDS011;39789;53.216;5.624;2022-11-27T04:13:47;13.70;;;6.53;;
53875;SDS011;39789;53.216;5.624;2022-11-27T04:16:13;17.48;;;6.18;;
53875;SDS011;39789;53.216;5.624;2022-11-27T04:18:38;15.30;;;6.03;;
53875;SDS011;39789;53.216;5.624;2022-11-27T04:21:04;14.25;;;6.80;;
53875;SDS011;39789;53.216;5.624;2022-11-27T04:23:30;14.38;;;6.40;;
53875;SDS011;39789;53.216;5.624;2022-11-27T04:25:55;14.70;;;8.00;;
53875;SDS011;39789;53.216;5.624;2022-11-27T04:28:21;15.82;;;6.50;;
53875;SDS011;39789;53.216;5.624;2022-11-27T04:30:50;16.85;;;6.65;;
53875;SDS011;39789;53.216;5.624;2022-11-27T04:33:17;16.70;;;6.82;;
53875;SDS011;39789;53.216;5.624;2022-11-27T04:35:43;15.88;;;6.90;;
53875;SDS011;39789;53.216;5.624;2022-11-27T04:38:08;16.15;;;6.55;;
53875;SDS011;39789;53.216;5.624;2022-11-27T04:40:34;20.27;;;6.47;;
53875;SDS011;39789;53.216;5.624;2022-11-27T04:42:59;13.38;;;6.38;;
53875;SDS011;39789;53.216;5.624;2022-11-27T04:45:25;12.48;;;6.70;;
53875;SDS011;39789;53.216;5.624;2022-11-27T04:47:50;13.45;;;6.95;;
53875;SDS011;39789;53.216;5.624;2022-11-27T04:50:16;16.67;;;6.88;;
53875;SDS011;39789;53.216;5.624;2022-11-27T04:52:42;16.00;;;6.55;;
53875;SDS011;39789;53.216;5.624;2022-11-27T04:55:07;15.10;;;6.53;;
53875;SDS011;39789;53.216;5.624;2022-11-27T04:57:33;11.35;;;6.28;;
53875;SDS011;39789;53.216;5.624;2022-11-27T04:59:59;17.95;;;6.57;;
53875;SDS011;39789;53.216;5.624;2022-11-27T05:02:25;15.25;;;6.50;;
53875;SDS011;39789;53.216;5.624;2022-11-27T05:04:50;13.20;;;6.43;;
53875;SDS011;39789;53.216;5.624;2022-11-27T05:07:16;17.08;;;7.30;;
53875;SDS011;39789;53.216;5.624;2022-11-27T05:09:41;14.82;;;7.00;;
53875;SDS011;39789;53.216;5.624;2022-11-27T05:12:07;11.05;;;6.22;;
53875;SDS011;39789;53.216;5.624;2022-11-27T05:14:32;9.90;;;5.65;;
53875;SDS011;39789;53.216;5.624;2022-11-27T05:16:58;16.05;;;6.93;;
53875;SDS011;39789;53.216;5.624;2022-11-27T05:19:25;14.10;;;7.05;;
53875;SDS011;39789;53.216;5.624;2022-11-27T05:21:52;13.05;;;6.60;;
53875;SDS011;39789;53.216;5.624;2022-11-27T05:24:19;17.35;;;7.20;;
53875;SDS011;39789;53.216;5.624;2022-11-27T05:26:47;11.63;;;7.20;;
53875;SDS011;39789;53.216;5.624;2022-11-27T05:29:13;14.70;;;6.88;;
53875;SDS011;39789;53.216;5.624;2022-11-27T05:31:39;16.83;;;6.88;;
53875;SDS011;39789;53.216;5.624;2022-11-27T05:34:06;13.43;;;6.38;;
53875;SDS011;39789;53.216;5.624;2022-11-27T05:36:32;14.27;;;6.97;;
53875;SDS011;39789;53.216;5.624;2022-11-27T05:38:58;14.93;;;6.47;;
53875;SDS011;39789;53.216;5.624;2022-11-27T05:41:25;13.98;;;7.32;;
53875;SDS011;39789;53.216;5.624;2022-11-27T05:43:53;16.98;;;6.88;;
53875;SDS011;39789;53.216;5.624;2022-11-27T05:46:19;14.15;;;6.55;;
53875;SDS011;39789;53.216;5.624;2022-11-27T05:48:46;14.70;;;6.40;;
53875;SDS011;39789;53.216;5.624;2022-11-27T05:51:11;9.75;;;6.10;;
53875;SDS011;39789;53.216;5.624;2022-11-27T05:53:37;9.68;;;6.20;;
53875;SDS011;39789;53.216;5.624;2022-11-27T05:56:04;12.77;;;6.20;;
53875;SDS011;39789;53.216;5.624;2022-11-27T05:58:32;15.20;;;6.47;;
53875;SDS011;39789;53.216;5.624;2022-11-27T06:00:58;16.02;;;6.68;;
53875;SDS011;39789;53.216;5.624;2022-11-27T06:03:24;10.27;;;5.68;;
53875;SDS011;39789;53.216;5.624;2022-11-27T06:05:50;11.18;;;5.95;;
53875;SDS011;39789;53.216;5.624;2022-11-27T06:08:16;12.07;;;6.07;;
53875;SDS011;39789;53.216;5.624;2022-11-27T06:10:41;16.88;;;7.07;;
53875;SDS011;39789;53.216;5.624;2022-11-27T06:13:07;18.27;;;6.40;;
53875;SDS011;39789;53.216;5.624;2022-11-27T06:15:34;14.65;;;5.93;;
53875;SDS011;39789;53.216;5.624;2022-11-27T06:18:02;13.98;;;6.18;;
53875;SDS011;39789;53.216;5.624;2022-11-27T06:20:31;9.63;;;6.25;;
53875;SDS011;39789;53.216;5.624;2022-11-27T06:22:58;11.75;;;6.40;;
53875;SDS011;39789;53.216;5.624;2022-11-27T06:25:24;14.07;;;5.90;;
53875;SDS011;39789;53.216;5.624;2022-11-27T06:27:50;18.10;;;6.43;;
53875;SDS011;39789;53.216;5.624;2022-11-27T06:30:18;9.93;;;5.95;;
53875;SDS011;39789;53.216;5.624;2022-11-27T06:32:43;9.35;;;5.68;;
53875;SDS011;39789;53.216;5.624;2022-11-27T06:35:09;11.95;;;5.90;;
53875;SDS011;39789;53.216;5.624;2022-11-27T06:37:35;13.43;;;5.82;;
53875;SDS011;39789;53.216;5.624;2022-11-27T06:40:00;12.45;;;5.78;;
53875;SDS011;39789;53.216;5.624;2022-11-27T06:42:29;8.57;;;5.40;;
53875;SDS011;39789;53.216;5.624;2022-11-27T06:44:56;12.52;;;5.70;;
53875;SDS011;39789;53.216;5.624;2022-11-27T06:47:22;11.48;;;5.78;;
53875;SDS011;39789;53.216;5.624;2022-11-27T06:49:48;8.35;;;5.03;;
53875;SDS011;39789;53.216;5.624;2022-11-27T06:52:13;12.32;;;5.30;;
53875;SDS011;39789;53.216;5.624;2022-11-27T06:54:39;11.95;;;5.70;;
53875;SDS011;39789;53.216;5.624;2022-11-27T06:57:05;10.85;;;5.32;;
53875;SDS011;39789;53.216;5.624;2022-11-27T06:59:33;14.52;;;5.43;;
53875;SDS011;39789;53.216;5.624;2022-11-27T07:01:58;10.98;;;5.07;;
53875;SDS011;39789;53.216;5.624;2022-11-27T07:04:24;9.80;;;5.10;;
53875;SDS011;39789;53.216;5.624;2022-11-27T07:06:52;10.77;;;5.32;;
53875;SDS011;39789;53.216;5.624;2022-11-27T07:09:19;12.98;;;5.07;;
53875;SDS011;39789;53.216;5.624;2022-11-27T07:11:45;9.70;;;4.55;;
53875;SDS011;39789;53.216;5.624;2022-11-27T07:14:10;14.25;;;6.22;;
53875;SDS011;39789;53.216;5.624;2022-11-27T07:16:36;10.60;;;5.32;;
53875;SDS011;39789;53.216;5.624;2022-11-27T07:19:05;11.77;;;5.13;;
53875;SDS011;39789;53.216;5.624;2022-11-27T07:21:35;17.35;;;5.30;;
53875;SDS011;39789;53.216;5.624;2022-11-27T07:24:01;11.18;;;5.50;;
53875;SDS011;39789;53.216;5.624;2022-11-27T07:26:28;9.90;;;4.65;;
53875;SDS011;39789;53.216;5.624;2022-11-27T07:28:54;7.40;;;4.95;;
53875;SDS011;39789;53.216;5.624;2022-11-27T07:31:21;9.00;;;4.88;;
53875;SDS011;39789;53.216;5.624;2022-11-27T07:33:50;9.63;;;4.72;;
53875;SDS011;39789;53.216;5.624;2022-11-27T07:36:26;9.40;;;4.57;;
53875;SDS011;39789;53.216;5.624;2022-11-27T07:38:53;9.90;;;4.25;;
53875;SDS011;39789;53.216;5.624;2022-11-27T07:41:20;7.68;;;4.07;;
53875;SDS011;39789;53.216;5.624;2022-11-27T07:43:46;9.02;;;4.20;;
53875;SDS011;39789;53.216;5.624;2022-11-27T07:46:16;8.07;;;4.13;;
53875;SDS011;39789;53.216;5.624;2022-11-27T07:48:46;13.38;;;4.55;;
53875;SDS011;39789;53.216;5.624;2022-11-27T07:51:13;8.00;;;4.53;;
53875;SDS011;39789;53.216;5.624;2022-11-27T07:53:41;11.15;;;4.82;;
53875;SDS011;39789;53.216;5.624;2022-11-27T07:56:08;19.02;;;5.22;;
53875;SDS011;39789;53.216;5.624;2022-11-27T07:58:35;10.10;;;4.38;;
53875;SDS011;39789;53.216;5.624;2022-11-27T08:01:04;12.10;;;4.35;;
53875;SDS011;39789;53.216;5.624;2022-11-27T08:03:34;10.88;;;4.30;;
53875;SDS011;39789;53.216;5.624;2022-11-27T08:06:00;10.15;;;4.47;;
53875;SDS011;39789;53.216;5.624;2022-11-27T08:08:26;8.23;;;4.43;;
53875;SDS011;39789;53.216;5.624;2022-11-27T08:10:51;10.80;;;4.00;;
53875;SDS011;39789;53.216;5.624;2022-11-27T08:13:17;11.80;;;3.83;;
53875;SDS011;39789;53.216;5.624;2022-11-27T08:15:42;9.82;;;4.45;;
53875;SDS011;39789;53.216;5.624;2022-11-27T08:18:10;9.45;;;3.60;;
53875;SDS011;39789;53.216;5.624;2022-11-27T08:20:36;10.13;;;4.05;;
53875;SDS011;39789;53.216;5.624;2022-11-27T08:23:01;8.70;;;4.20;;
53875;SDS011;39789;53.216;5.624;2022-11-27T08:25:27;9.63;;;4.28;;
53875;SDS011;39789;53.216;5.624;2022-11-27T08:27:53;9.68;;;4.68;;
53875;SDS011;39789;53.216;5.624;2022-11-27T08:30:18;10.63;;;4.38;;
53875;SDS011;39789;53.216;5.624;2022-11-27T08:32:47;9.98;;;4.47;;
53875;SDS011;39789;53.216;5.624;2022-11-27T08:35:13;11.07;;;4.82;;
53875;SDS011;39789;53.216;5.624;2022-11-27T08:37:38;9.73;;;4.43;;
53875;SDS011;39789;53.216;5.624;2022-11-27T08:40:04;11.98;;;4.53;;
53875;SDS011;39789;53.216;5.624;2022-11-27T08:42:30;8.38;;;4.53;;
53875;SDS011;39789;53.216;5.624;2022-11-27T08:44:56;10.98;;;3.88;;
53875;SDS011;39789;53.216;5.624;2022-11-27T08:47:21;8.02;;;4.20;;
53875;SDS011;39789;53.216;5.624;2022-11-27T08:49:47;8.00;;;3.97;;
53875;SDS011;39789;53.216;5.624;2022-11-27T08:52:12;8.95;;;4.03;;
53875;SDS011;39789;53.216;5.624;2022-11-27T08:54:38;9.52;;;4.65;;
53875;SDS011;39789;53.216;5.624;2022-11-27T08:57:03;10.95;;;4.38;;
53875;SDS011;39789;53.216;5.624;2022-11-27T08:59:29;7.82;;;4.00;;
53875;SDS011;39789;53.216;5.624;2022-11-27T09:01:54;8.82;;;4.30;;
53875;SDS011;39789;53.216;5.624;2022-11-27T09:04:20;8.02;;;4.28;;
53875;SDS011;39789;53.216;5.624;2022-11-27T09:06:46;8.07;;;3.97;;
53875;SDS011;39789;53.216;5.624;2022-11-27T09:09:13;10.23;;;3.75;;
53875;SDS011;39789;53.216;5.624;2022-11-27T09:11:39;7.25;;;3.97;;
53875;SDS011;39789;53.216;5.624;2022-11-27T09:14:05;8.23;;;4.80;;
53875;SDS011;39789;53.216;5.624;2022-11-27T09:16:33;10.20;;;3.88;;
53875;SDS011;39789;53.216;5.624;2022-11-27T09:18:59;7.18;;;3.53;;
53875;SDS011;39789;53.216;5.624;2022-11-27T09:21:26;10.90;;;4.95;;
53875;SDS011;39789;53.216;5.624;2022-11-27T09:24:00;10.40;;;4.40;;
53875;SDS011;39789;53.216;5.624;2022-11-27T09:26:26;11.32;;;4.63;;
53875;SDS011;39789;53.216;5.624;2022-11-27T09:28:52;11.63;;;4.03;;
53875;SDS011;39789;53.216;5.624;2022-11-27T09:31:19;7.25;;;4.00;;
53875;SDS011;39789;53.216;5.624;2022-11-27T09:33:45;9.75;;;3.88;;
53875;SDS011;39789;53.216;5.624;2022-11-27T09:36:18;9.57;;;4.57;;
53875;SDS011;39789;53.216;5.624;2022-11-27T09:38:46;10.07;;;4.22;;
53875;SDS011;39789;53.216;5.624;2022-11-27T09:46:39;9.07;;;4.75;;
53875;SDS011;39789;53.216;5.624;2022-11-27T09:49:12;10.63;;;3.92;;
53875;SDS011;39789;53.216;5.624;2022-11-27T09:51:44;9.82;;;4.45;;
53875;SDS011;39789;53.216;5.624;2022-11-27T09:57:00;15.15;;;4.57;;
53875;SDS011;39789;53.216;5.624;2022-11-27T09:59:28;7.30;;;4.18;;
53875;SDS011;39789;53.216;5.624;2022-11-27T10:02:07;9.70;;;4.65;;
53875;SDS011;39789;53.216;5.624;2022-11-27T10:04:48;15.93;;;4.90;;
53875;SDS011;39789;53.216;5.624;2022-11-27T10:07:16;11.95;;;5.05;;
53875;SDS011;39789;53.216;5.624;2022-11-27T10:09:57;9.57;;;4.63;;
53875;SDS011;39789;53.216;5.624;2022-11-27T10:12:59;13.68;;;4.47;;
53875;SDS011;39789;53.216;5.624;2022-11-27T10:16:00;11.65;;;4.93;;
53875;SDS011;39789;53.216;5.624;2022-11-27T10:18:38;8.68;;;4.68;;
53875;SDS011;39789;53.216;5.624;2022-11-27T10:21:16;9.65;;;4.68;;
53875;SDS011;39789;53.216;5.624;2022-11-27T10:26:52;7.60;;;4.07;;
53875;SDS011;39789;53.216;5.624;2022-11-27T10:29:33;10.13;;;4.85;;
53875;SDS011;39789;53.216;5.624;2022-11-27T10:32:04;12.13;;;4.93;;
53875;SDS011;39789;53.216;5.624;2022-11-27T10:34:38;12.65;;;5.95;;
53875;SDS011;39789;53.216;5.624;2022-11-27T10:37:11;9.75;;;4.90;;
53875;SDS011;39789;53.216;5.624;2022-11-27T10:39:57;8.93;;;4.65;;
53875;SDS011;39789;53.216;5.624;2022-11-27T10:43:17;8.68;;;4.95;;
53875;SDS011;39789;53.216;5.624;2022-11-27T10:45:51;13.93;;;5.53;;
53875;SDS011;39789;53.216;5.624;2022-11-27T10:48:33;12.82;;;5.53;;
53875;SDS011;39789;53.216;5.624;2022-11-27T10:53:54;9.15;;;5.00;;
53875;SDS011;39789;53.216;5.624;2022-11-27T10:59:10;11.73;;;6.07;;
53875;SDS011;39789;53.216;5.624;2022-11-27T11:01:44;13.02;;;6.47;;
53875;SDS011;39789;53.216;5.624;2022-11-27T11:04:12;16.10;;;6.70;;
53875;SDS011;39789;53.216;5.624;2022-11-27T11:06:44;12.48;;;5.88;;
53875;SDS011;39789;53.216;5.624;2022-11-27T11:11:48;11.90;;;6.43;;
53875;SDS011;39789;53.216;5.624;2022-11-27T11:14:14;12.55;;;6.60;;
53875;SDS011;39789;53.216;5.624;2022-11-27T11:16:48;11.30;;;5.60;;
53875;SDS011;39789;53.216;5.624;2022-11-27T11:19:47;13.90;;;6.43;;
53875;SDS011;39789;53.216;5.624;2022-11-27T11:22:11;13.35;;;6.70;;
53875;SDS011;39789;53.216;5.624;2022-11-27T11:24:39;12.45;;;6.00;;
53875;SDS011;39789;53.216;5.624;2022-11-27T11:27:14;12.48;;;6.60;;
53875;SDS011;39789;53.216;5.624;2022-11-27T11:29:46;14.13;;;6.13;;
53875;SDS011;39789;53.216;5.624;2022-11-27T11:34:44;13.93;;;7.60;;
53875;SDS011;39789;53.216;5.624;2022-11-27T11:42:54;18.95;;;6.93;;
53875;SDS011;39789;53.216;5.624;2022-11-27T11:45:23;13.40;;;7.35;;
53875;SDS011;39789;53.216;5.624;2022-11-27T11:47:50;12.30;;;7.20;;
53875;SDS011;39789;53.216;5.624;2022-11-27T11:50:39;11.23;;;7.32;;
53875;SDS011;39789;53.216;5.624;2022-11-27T11:53:30;12.93;;;7.45;;
53875;SDS011;39789;53.216;5.624;2022-11-27T11:56:09;15.65;;;7.50;;
53875;SDS011;39789;53.216;5.624;2022-11-27T12:01:43;13.95;;;7.78;;
53875;SDS011;39789;53.216;5.624;2022-11-27T12:07:56;14.00;;;7.57;;
53875;SDS011;39789;53.216;5.624;2022-11-27T12:10:20;14.93;;;7.22;;
53875;SDS011;39789;53.216;5.624;2022-11-27T12:15:49;14.70;;;7.70;;
53875;SDS011;39789;53.216;5.624;2022-11-27T12:18:36;15.30;;;7.43;;
53875;SDS011;39789;53.216;5.624;2022-11-27T12:21:35;13.75;;;7.90;;
53875;SDS011;39789;53.216;5.624;2022-11-27T12:24:40;16.98;;;8.55;;
53875;SDS011;39789;53.216;5.624;2022-11-27T12:27:22;16.80;;;8.63;;
53875;SDS011;39789;53.216;5.624;2022-11-27T12:30:22;14.80;;;8.18;;
53875;SDS011;39789;53.216;5.624;2022-11-27T12:40:46;18.03;;;9.60;;
53875;SDS011;39789;53.216;5.624;2022-11-27T12:43:36;17.45;;;8.57;;
53875;SDS011;39789;53.216;5.624;2022-11-27T12:46:16;16.58;;;9.63;;
53875;SDS011;39789;53.216;5.624;2022-11-27T12:48:52;14.98;;;8.25;;
53875;SDS011;39789;53.216;5.624;2022-11-27T12:51:23;12.88;;;8.63;;
53875;SDS011;39789;53.216;5.624;2022-11-27T12:54:01;19.83;;;10.18;;
53875;SDS011;39789;53.216;5.624;2022-11-27T12:56:43;19.58;;;9.40;;
53875;SDS011;39789;53.216;5.624;2022-11-27T13:02:11;21.38;;;10.32;;
53875;SDS011;39789;53.216;5.624;2022-11-27T13:04:51;18.27;;;10.10;;
53875;SDS011;39789;53.216;5.624;2022-11-27T13:07:22;22.75;;;10.85;;
53875;SDS011;39789;53.216;5.624;2022-11-27T13:10:05;21.45;;;10.00;;
53875;SDS011;39789;53.216;5.624;2022-11-27T13:12:37;15.35;;;10.23;;
53875;SDS011;39789;53.216;5.624;2022-11-27T13:15:22;20.77;;;9.93;;
53875;SDS011;39789;53.216;5.624;2022-11-27T13:17:55;21.80;;;10.80;;
53875;SDS011;39789;53.216;5.624;2022-11-27T13:20:32;21.35;;;10.65;;
53875;SDS011;39789;53.216;5.624;2022-11-27T13:23:02;18.95;;;9.60;;
53875;SDS011;39789;53.216;5.624;2022-11-27T13:29:15;18.27;;;11.13;;
53875;SDS011;39789;53.216;5.624;2022-11-27T13:31:55;19.92;;;10.43;;
53875;SDS011;39789;53.216;5.624;2022-11-27T13:34:25;17.58;;;9.50;;
53875;SDS011;39789;53.216;5.624;2022-11-27T13:36:57;21.27;;;9.90;;
53875;SDS011;39789;53.216;5.624;2022-11-27T13:39:34;17.08;;;9.95;;
53875;SDS011;39789;53.216;5.624;2022-11-27T13:42:19;19.58;;;9.70;;
53875;SDS011;39789;53.216;5.624;2022-11-27T13:44:53;17.13;;;8.90;;
53875;SDS011;39789;53.216;5.624;2022-11-27T13:47:27;15.35;;;9.20;;
53875;SDS011;39789;53.216;5.624;2022-11-27T13:50:00;16.92;;;9.45;;
53875;SDS011;39789;53.216;5.624;2022-11-27T13:55:35;14.27;;;8.30;;
53875;SDS011;39789;53.216;5.624;2022-11-27T13:58:04;15.52;;;9.45;;
53875;SDS011;39789;53.216;5.624;2022-11-27T14:00:35;21.30;;;11.77;;
53875;SDS011;39789;53.216;5.624;2022-11-27T14:03:03;17.80;;;10.40;;
53875;SDS011;39789;53.216;5.624;2022-11-27T14:05:35;22.48;;;12.25;;
53875;SDS011;39789;53.216;5.624;2022-11-27T14:08:06;16.45;;;10.13;;
53875;SDS011;39789;53.216;5.624;2022-11-27T14:10:52;14.63;;;9.70;;
53875;SDS011;39789;53.216;5.624;2022-11-27T14:13:31;19.25;;;10.95;;
53875;SDS011;39789;53.216;5.624;2022-11-27T14:15:59;19.48;;;10.38;;
53875;SDS011;39789;53.216;5.624;2022-11-27T14:18:26;19.00;;;10.73;;
53875;SDS011;39789;53.216;5.624;2022-11-27T14:20:58;20.75;;;10.10;;
53875;SDS011;39789;53.216;5.624;2022-11-27T14:23:27;16.63;;;9.68;;
53875;SDS011;39789;53.216;5.624;2022-11-27T14:26:02;17.08;;;10.00;;
53875;SDS011;39789;53.216;5.624;2022-11-27T14:28:44;16.77;;;9.63;;
53875;SDS011;39789;53.216;5.624;2022-11-27T14:31:25;17.20;;;11.45;;
53875;SDS011;39789;53.216;5.624;2022-11-27T14:33:52;20.92;;;9.63;;
53875;SDS011;39789;53.216;5.624;2022-11-27T14:36:28;19.02;;;10.20;;
53875;SDS011;39789;53.216;5.624;2022-11-27T14:38:56;18.15;;;9.63;;
53875;SDS011;39789;53.216;5.624;2022-11-27T14:41:23;16.60;;;9.85;;
53875;SDS011;39789;53.216;5.624;2022-11-27T14:43:59;17.67;;;10.35;;
53875;SDS011;39789;53.216;5.624;2022-11-27T14:46:26;14.63;;;9.05;;
53875;SDS011;39789;53.216;5.624;2022-11-27T14:48:53;16.88;;;9.15;;
53875;SDS011;39789;53.216;5.624;2022-11-27T14:51:29;18.20;;;9.38;;
53875;SDS011;39789;53.216;5.624;2022-11-27T14:53:58;15.02;;;8.63;;
53875;SDS011;39789;53.216;5.624;2022-11-27T14:56:37;17.42;;;8.73;;
53875;SDS011;39789;53.216;5.624;2022-11-27T14:59:05;20.85;;;10.20;;
53875;SDS011;39789;53.216;5.624;2022-11-27T15:01:37;18.05;;;8.77;;
53875;SDS011;39789;53.216;5.624;2022-11-27T15:04:04;13.00;;;8.55;;
53875;SDS011;39789;53.216;5.624;2022-11-27T15:10:18;13.85;;;8.35;;
53875;SDS011;39789;53.216;5.624;2022-11-27T15:12:54;14.68;;;9.57;;
53875;SDS011;39789;53.216;5.624;2022-11-27T15:15:21;17.02;;;8.88;;
53875;SDS011;39789;53.216;5.624;2022-11-27T15:17:52;16.08;;;9.05;;
53875;SDS011;39789;53.216;5.624;2022-11-27T15:20:22;15.82;;;9.10;;
53875;SDS011;39789;53.216;5.624;2022-11-27T15:22:57;18.92;;;9.38;;
53875;SDS011;39789;53.216;5.624;2022-11-27T15:28:18;16.15;;;8.38;;
53875;SDS011;39789;53.216;5.624;2022-11-27T15:30:58;14.18;;;8.00;;
53875;SDS011;39789;53.216;5.624;2022-11-27T15:33:28;12.50;;;8.25;;
53875;SDS011;39789;53.216;5.624;2022-11-27T15:36:17;15.80;;;9.20;;
53875;SDS011;39789;53.216;5.624;2022-11-27T15:38:43;15.00;;;8.82;;
53875;SDS011;39789;53.216;5.624;2022-11-27T15:41:23;13.15;;;7.78;;
53875;SDS011;39789;53.216;5.624;2022-11-27T15:43:50;16.67;;;9.00;;
53875;SDS011;39789;53.216;5.624;2022-11-27T15:46:19;15.65;;;8.68;;
53875;SDS011;39789;53.216;5.624;2022-11-27T15:48:54;10.32;;;7.88;;
53875;SDS011;39789;53.216;5.624;2022-11-27T15:51:20;13.10;;;9.02;;
53875;SDS011;39789;53.216;5.624;2022-11-27T15:53:46;13.93;;;8.40;;
53875;SDS011;39789;53.216;5.624;2022-11-27T15:56:13;14.25;;;8.88;;
53875;SDS011;39789;53.216;5.624;2022-11-27T15:58:39;18.85;;;9.68;;
53875;SDS011;39789;53.216;5.624;2022-11-27T16:01:06;19.70;;;10.13;;
53875;SDS011;39789;53.216;5.624;2022-11-27T16:03:32;14.75;;;9.27;;
53875;SDS011;39789;53.216;5.624;2022-11-27T16:06:01;16.58;;;10.07;;
53875;SDS011;39789;53.216;5.624;2022-11-27T16:08:28;15.73;;;8.90;;
53875;SDS011;39789;53.216;5.624;2022-11-27T16:10:57;16.83;;;9.05;;
53875;SDS011;39789;53.216;5.624;2022-11-27T16:13:24;16.52;;;9.05;;
53875;SDS011;39789;53.216;5.624;2022-11-27T16:15:50;16.15;;;9.15;;
53875;SDS011;39789;53.216;5.624;2022-11-27T16:18:16;13.10;;;8.93;;
53875;SDS011;39789;53.216;5.624;2022-11-27T16:20:44;13.02;;;8.77;;
53875;SDS011;39789;53.216;5.624;2022-11-27T16:23:09;14.65;;;9.32;;
53875;SDS011;39789;53.216;5.624;2022-11-27T16:25:38;15.63;;;8.60;;
53875;SDS011;39789;53.216;5.624;2022-11-27T16:28:04;13.25;;;8.05;;
53875;SDS011;39789;53.216;5.624;2022-11-27T16:30:29;13.68;;;8.75;;